Time;durP1;ratioP1;P1;durP2;ratioP2;P2;SDS_P1;SDS_P2;PMS_P1;PMS_P2;Temp;Humidity;BMP_temperature;BMP_pressure;BME280_temperature;BME280_humidity;BME280_pressure;Samples;Min_cycle;Max_cycle;Signal;HPM_P1;HPM_P2
2022/07/20 00:00:00;;;;;;;;;;;;;;;;;;4988623;28;19913;-43
2022/07/20 00:02:26;;;;;;;;;;;;;;;;;;4987696;28;19918;-47
2022/07/20 00:04:52;;;;;;;;;;;;;;;;;;4995822;28;20024;-46
2022/07/20 00:07:18;;;;;;;;;;;;;;;;;;5006956;28;19920;-47
2022/07/20 00:12:29;;;;;;;;;;;;;;;;;;5007059;28;19920;-44
2022/07/20 00:14:57;;;;;;;;;;;;;;;;;;5006598;28;20228;-44
2022/07/20 00:17:23;;;;;;;;;;;;;;;;;;5004939;28;20025;-44
2022/07/20 00:19:49;;;;;;;;;;;;;;;;;;5007018;28;19913;-43
2022/07/20 00:22:15;;;;;;;;;;;;;;;;;;5004920;28;19956;-43
2022/07/20 00:24:41;;;;;;;;;;;;;;;;;;5005225;28;19917;-43
2022/07/20 00:27:07;;;;;;;;;;;;;;;;;;5005277;28;19917;-42
2022/07/20 00:29:33;;;;;;;;;;;;;;;;;;5005880;28;19921;-42
2022/07/20 00:31:58;;;;;;;;;;;;;;;;;;5007860;28;19910;-43
2022/07/20 00:34:24;;;;;;;;;;;;;;;;;;5006584;28;19944;-43
2022/07/20 00:36:50;;;;;;;;;;;;;;;;;;5007107;28;19932;-42
2022/07/20 00:39:16;;;;;;;;;;;;;;;;;;5005992;28;19906;-43
2022/07/20 00:41:42;;;;;;;;;;;;;;;;;;5005335;28;19932;-42
2022/07/20 00:44:08;;;;;;;;;;;;;;;;;;5006703;28;19922;-43
2022/07/20 00:46:34;;;;;;;;;;;;;;;;;;5007009;28;19910;-44
2022/07/20 00:49:00;;;;;;;;;;;;;;;;;;5007559;28;19945;-43
2022/07/20 00:51:26;;;;;;;;;;;;;;;;;;4994433;28;19918;-44
2022/07/20 00:53:52;;;;;;;;;;;;;;;;;;4987108;28;19921;-44
2022/07/20 00:56:18;;;;;;;;;;;;;;;;;;4987124;28;19925;-48
2022/07/20 00:58:44;;;;;;;;;;;;;;;;;;4987198;28;19964;-46
2022/07/20 01:01:10;;;;;;;;;;;;;;;;;;4998257;28;20013;-43
2022/07/20 01:03:36;;;;;;;;;;;;;;;;;;5006381;28;19920;-42
2022/07/20 01:06:02;;;;;;;;;;;;;;;;;;5006884;28;19914;-42
2022/07/20 01:08:28;;;;;;;;;;;;;;;;;;5007336;28;20345;-42
2022/07/20 01:10:54;;;;;;;;;;;;;;;;;;4995066;28;19945;-44
2022/07/20 01:13:20;;;;;;;;;;;;;;;;;;4986925;28;19910;-44
2022/07/20 01:15:46;;;;;;;;;;;;;;;;;;4987308;28;19913;-43
2022/07/20 01:18:12;;;;;;;;;;;;;;;;;;4986905;28;19910;-46
2022/07/20 01:20:38;;;;;;;;;;;;;;;;;;4993184;28;19929;-43
2022/07/20 01:23:04;;;;;;;;;;;;;;;;;;5006368;28;19917;-45
2022/07/20 01:25:29;;;;;;;;;;;;;;;;;;5007017;28;19914;-45
2022/07/20 01:27:55;;;;;;;;;;;;;;;;;;5006366;28;20007;-45
2022/07/20 01:30:21;;;;;;;;;;;;;;;;;;4990821;28;19918;-45
2022/07/20 01:32:47;;;;;;;;;;;;;;;;;;5006431;28;20628;-46
2022/07/20 01:35:13;;;;;;;;;;;;;;;;;;5006356;28;19913;-44
2022/07/20 01:37:39;;;;;;;;;;;;;;;;;;5006373;28;19964;-43
2022/07/20 01:40:05;;;;;;;;;;;;;;;;;;5006273;28;19913;-45
2022/07/20 01:42:31;;;;;;;;;;;;;;;;;;4993118;28;19918;-42
2022/07/20 01:44:57;;;;;;;;;;;;;;;;;;4996369;28;19924;-43
2022/07/20 01:47:23;;;;;;;;;;;;;;;;;;4986501;28;19948;-43
2022/07/20 01:49:49;;;;;;;;;;;;;;;;;;4987656;28;19914;-45
2022/07/20 01:52:15;;;;;;;;;;;;;;;;;;4989736;28;19928;-44
2022/07/20 01:54:41;;;;;;;;;;;;;;;;;;4989573;28;19953;-46
2022/07/20 01:57:07;;;;;;;;;;;;;;;;;;4990063;28;19910;-42
2022/07/20 01:59:32;;;;;;;;;;;;;;;;;;4989937;28;19960;-44
2022/07/20 02:01:58;;;;;;;;;;;;;;;;;;4994956;28;19917;-42
2022/07/20 02:04:24;;;;;;;;;;;;;;;;;;4998386;28;19949;-44
2022/07/20 02:06:50;;;;;;;;;;;;;;;;;;4989559;28;19921;-43
2022/07/20 02:09:16;;;;;;;;;;;;;;;;;;4989763;28;19973;-44
2022/07/20 02:11:42;;;;;;;;;;;;;;;;;;4989840;28;19921;-42
2022/07/20 02:14:08;;;;;;;;;;;;;;;;;;4989710;28;19925;-43
2022/07/20 02:16:34;;;;;;;;;;;;;;;;;;4993911;28;19913;-43
2022/07/20 02:19:00;;;;;;;;;;;;;;;;;;5009873;28;20055;-43
2022/07/20 02:21:29;;;;;;;;;;;;;;;;;;5008889;28;19914;-42
2022/07/20 02:23:55;;;;;;;;;;;;;;;;;;5009188;28;19914;-43
2022/07/20 02:26:20;;;;;;;;;;;;;;;;;;5006797;28;19924;-43
2022/07/20 02:28:46;;;;;;;;;;;;;;;;;;4989442;28;19917;-45
2022/07/20 02:31:12;;;;;;;;;;;;;;;;;;4989522;28;19914;-42
2022/07/20 02:33:38;;;;;;;;;;;;;;;;;;4989414;28;19965;-43
2022/07/20 02:36:04;;;;;;;;;;;;;;;;;;4987534;28;20354;-43
2022/07/20 02:38:30;;;;;;;;;;;;;;;;;;5009659;28;19910;-42
2022/07/20 02:40:56;;;;;;;;;;;;;;;;;;5009080;28;19910;-43
2022/07/20 02:43:22;;;;;;;;;;;;;;;;;;5008394;28;19920;-42
2022/07/20 02:45:48;;;;;;;;;;;;;;;;;;5009040;28;19917;-43
2022/07/20 02:48:14;;;;;;;;;;;;;;;;;;5007181;28;19920;-43
2022/07/20 02:50:41;;;;;;;;;;;;;;;;;;5008745;28;19963;-42
2022/07/20 02:53:07;;;;;;;;;;;;;;;;;;5008459;28;19909;-44
2022/07/20 02:55:33;;;;;;;;;;;;;;;;;;5008625;28;20424;-44
2022/07/20 02:57:58;;;;;;;;;;;;;;;;;;5008163;28;19961;-42
2022/07/20 03:00:24;;;;;;;;;;;;;;;;;;5008436;28;19955;-43
2022/07/20 03:02:50;;;;;;;;;;;;;;;;;;5007873;28;19913;-44
2022/07/20 03:05:16;;;;;;;;;;;;;;;;;;5007134;28;20020;-44
2022/07/20 03:07:42;;;;;;;;;;;;;;;;;;5007149;28;20376;-45
2022/07/20 03:10:08;;;;;;;;;;;;;;;;;;4989758;28;19922;-45
2022/07/20 03:12:34;;;;;;;;;;;;;;;;;;4988709;28;19917;-45
2022/07/20 03:15:00;;;;;;;;;;;;;;;;;;4989249;28;20009;-43
2022/07/20 03:17:26;;;;;;;;;;;;;;;;;;4998606;28;19944;-44
2022/07/20 03:19:52;;;;;;;;;;;;;;;;;;5008514;28;19917;-46
2022/07/20 03:22:18;;;;;;;;;;;;;;;;;;5007941;28;19960;-42
2022/07/20 03:24:44;;;;;;;;;;;;;;;;;;5008326;28;20435;-42
2022/07/20 03:27:10;;;;;;;;;;;;;;;;;;5005589;28;19920;-43
2022/07/20 03:29:36;;;;;;;;;;;;;;;;;;5007092;28;19917;-43
2022/07/20 03:32:02;;;;;;;;;;;;;;;;;;5008273;28;19913;-42
2022/07/20 03:34:28;;;;;;;;;;;;;;;;;;5006679;28;19945;-44
2022/07/20 03:36:54;;;;;;;;;;;;;;;;;;5006682;28;20019;-42
2022/07/20 03:39:20;;;;;;;;;;;;;;;;;;5007884;28;20081;-44
2022/07/20 03:41:46;;;;;;;;;;;;;;;;;;5006495;28;19959;-43
2022/07/20 03:44:11;;;;;;;;;;;;;;;;;;5007650;28;19918;-43
2022/07/20 03:46:37;;;;;;;;;;;;;;;;;;5003192;28;19917;-43
2022/07/20 03:49:04;;;;;;;;;;;;;;;;;;4987903;28;19914;-42
2022/07/20 03:51:29;;;;;;;;;;;;;;;;;;4988610;28;19956;-43
2022/07/20 03:53:55;;;;;;;;;;;;;;;;;;4988110;28;19953;-44
2022/07/20 03:56:21;;;;;;;;;;;;;;;;;;4988487;28;19916;-45
2022/07/20 03:58:47;;;;;;;;;;;;;;;;;;5007580;28;19962;-42
2022/07/20 04:01:13;;;;;;;;;;;;;;;;;;5007127;28;20008;-44
2022/07/20 04:03:39;;;;;;;;;;;;;;;;;;5001554;28;19929;-45
2022/07/20 04:06:05;;;;;;;;;;;;;;;;;;5007188;28;19910;-44
2022/07/20 04:08:31;;;;;;;;;;;;;;;;;;5008026;28;19929;-46
2022/07/20 04:10:57;;;;;;;;;;;;;;;;;;5007633;28;20018;-43
2022/07/20 04:13:23;;;;;;;;;;;;;;;;;;5005099;28;19917;-43
2022/07/20 04:15:49;;;;;;;;;;;;;;;;;;5007336;28;19914;-43
2022/07/20 04:18:15;;;;;;;;;;;;;;;;;;5006940;28;20003;-44
2022/07/20 04:20:41;;;;;;;;;;;;;;;;;;5007167;28;19913;-43
2022/07/20 04:23:07;;;;;;;;;;;;;;;;;;5004814;28;19914;-44
2022/07/20 04:25:32;;;;;;;;;;;;;;;;;;4988629;28;19940;-43
2022/07/20 04:27:58;;;;;;;;;;;;;;;;;;4988136;28;19918;-43
2022/07/20 04:30:24;;;;;;;;;;;;;;;;;;4996042;28;19917;-43
2022/07/20 04:32:50;;;;;;;;;;;;;;;;;;5006968;28;19910;-43
2022/07/20 04:35:16;;;;;;;;;;;;;;;;;;5005565;28;19913;-43
2022/07/20 04:37:42;;;;;;;;;;;;;;;;;;5006950;28;19914;-43
2022/07/20 04:40:08;;;;;;;;;;;;;;;;;;5006902;28;19956;-43
2022/07/20 04:42:34;;;;;;;;;;;;;;;;;;5007063;28;19914;-42
2022/07/20 04:45:00;;;;;;;;;;;;;;;;;;5003847;28;19921;-43
2022/07/20 04:47:26;;;;;;;;;;;;;;;;;;5006658;28;19921;-43
2022/07/20 04:49:52;;;;;;;;;;;;;;;;;;5006938;28;20124;-43
2022/07/20 04:52:18;;;;;;;;;;;;;;;;;;5006813;28;19920;-43
2022/07/20 04:54:44;;;;;;;;;;;;;;;;;;4994308;28;19914;-44
2022/07/20 04:57:10;;;;;;;;;;;;;;;;;;4987106;28;19914;-45
2022/07/20 04:59:37;;;;;;;;;;;;;;;;;;4987139;28;19913;-42
2022/07/20 05:02:03;;;;;;;;;;;;;;;;;;4996313;28;19917;-44
2022/07/20 05:04:29;;;;;;;;;;;;;;;;;;5007231;28;19924;-44
2022/07/20 05:06:55;;;;;;;;;;;;;;;;;;5006912;28;19909;-47
2022/07/20 05:09:21;;;;;;;;;;;;;;;;;;4993068;28;19936;-45
2022/07/20 05:11:47;;;;;;;;;;;;;;;;;;4995905;28;19917;-45
2022/07/20 05:14:13;;;;;;;;;;;;;;;;;;4996413;28;19913;-47
2022/07/20 05:16:39;;;;;;;;;;;;;;;;;;5006421;28;20022;-44
2022/07/20 05:19:05;;;;;;;;;;;;;;;;;;5004984;28;19917;-45
2022/07/20 05:21:31;;;;;;;;;;;;;;;;;;5005005;28;19920;-43
2022/07/20 05:23:57;;;;;;;;;;;;;;;;;;5006940;28;19918;-45
2022/07/20 05:26:23;;;;;;;;;;;;;;;;;;4997412;28;19964;-44
2022/07/20 05:28:49;;;;;;;;;;;;;;;;;;4990594;28;19932;-44
2022/07/20 05:31:15;;;;;;;;;;;;;;;;;;4999426;28;19917;-43
2022/07/20 05:33:41;;;;;;;;;;;;;;;;;;5008743;28;19952;-44
2022/07/20 05:36:07;;;;;;;;;;;;;;;;;;5003953;28;20348;-45
2022/07/20 05:38:33;;;;;;;;;;;;;;;;;;5001451;28;19909;-46
2022/07/20 05:40:59;;;;;;;;;;;;;;;;;;4999279;28;19913;-44
2022/07/20 05:43:24;;;;;;;;;;;;;;;;;;5009602;28;19960;-47
2022/07/20 05:45:50;;;;;;;;;;;;;;;;;;5008828;28;19917;-46
2022/07/20 05:48:16;;;;;;;;;;;;;;;;;;4990833;28;19918;-44
2022/07/20 05:50:42;;;;;;;;;;;;;;;;;;4993382;28;19923;-44
2022/07/20 05:53:08;;;;;;;;;;;;;;;;;;5005671;28;19940;-47
2022/07/20 05:55:34;;;;;;;;;;;;;;;;;;5007356;28;19909;-45
2022/07/20 05:58:00;;;;;;;;;;;;;;;;;;4994785;28;19925;-45
2022/07/20 06:00:26;;;;;;;;;;;;;;;;;;4994541;28;19918;-47
2022/07/20 06:02:52;;;;;;;;;;;;;;;;;;5004558;28;20271;-47
2022/07/20 06:05:18;;;;;;;;;;;;;;;;;;4989495;28;19925;-48
2022/07/20 06:07:44;;;;;;;;;;;;;;;;;;4997253;28;19921;-44
2022/07/20 06:10:10;;;;;;;;;;;;;;;;;;4989430;28;19918;-48
2022/07/20 06:12:36;;;;;;;;;;;;;;;;;;5001305;28;19959;-44
2022/07/20 06:15:02;;;;;;;;;;;;;;;;;;5001728;28;19917;-46
2022/07/20 06:17:28;;;;;;;;;;;;;;;;;;5007814;28;19921;-44
2022/07/20 06:19:54;;;;;;;;;;;;;;;;;;5009347;28;19914;-46
2022/07/20 06:22:19;;;;;;;;;;;;;;;;;;5007299;28;19917;-48
2022/07/20 06:24:45;;;;;;;;;;;;;;;;;;5003222;28;19921;-47
2022/07/20 06:27:12;;;;;;;;;;;;;;;;;;4997425;28;20067;-48
2022/07/20 06:29:38;;;;;;;;;;;;;;;;;;5001588;28;19974;-46
2022/07/20 06:32:04;;;;;;;;;;;;;;;;;;5000882;28;19921;-46
2022/07/20 06:34:30;;;;;;;;;;;;;;;;;;5003736;28;20044;-46
2022/07/20 06:36:56;;;;;;;;;;;;;;;;;;5002654;28;19913;-46
2022/07/20 06:39:23;;;;;;;;;;;;;;;;;;4994062;28;19918;-45
2022/07/20 06:41:49;;;;;;;;;;;;;;;;;;5009674;28;20308;-45
2022/07/20 06:44:15;;;;;;;;;;;;;;;;;;5006916;28;19928;-43
2022/07/20 06:46:41;;;;;;;;;;;;;;;;;;5001871;28;19913;-45
2022/07/20 06:49:08;;;;;;;;;;;;;;;;;;5001202;28;19920;-44
2022/07/20 06:51:34;;;;;;;;;;;;;;;;;;5009374;28;19914;-43
2022/07/20 06:54:00;;;;;;;;;;;;;;;;;;5010829;28;19913;-42
2022/07/20 06:56:26;;;;;;;;;;;;;;;;;;5014581;28;19921;-42
2022/07/20 06:58:52;;;;;;;;;;;;;;;;;;4997685;28;19924;-43
2022/07/20 07:01:18;;;;;;;;;;;;;;;;;;4997913;28;20008;-43
2022/07/20 07:03:44;;;;;;;;;;;;;;;;;;5003925;28;19925;-43
2022/07/20 07:06:10;;;;;;;;;;;;;;;;;;5004042;28;19924;-43
2022/07/20 07:08:36;;;;;;;;;;;;;;;;;;5000031;28;19987;-44
2022/07/20 07:11:02;;;;;;;;;;;;;;;;;;5006869;28;19942;-44
2022/07/20 07:13:27;;;;;;;;;;;;;;;;;;4989227;28;19921;-45
2022/07/20 07:15:53;;;;;;;;;;;;;;;;;;4999340;28;19917;-43
2022/07/20 07:18:19;;;;;;;;;;;;;;;;;;5001810;28;20283;-43
2022/07/20 07:20:45;;;;;;;;;;;;;;;;;;4989046;28;19914;-44
2022/07/20 07:23:11;;;;;;;;;;;;;;;;;;4988437;28;19917;-43
2022/07/20 07:25:37;;;;;;;;;;;;;;;;;;5000272;28;19917;-43
2022/07/20 07:28:03;;;;;;;;;;;;;;;;;;5007350;28;19922;-42
2022/07/20 07:30:29;;;;;;;;;;;;;;;;;;5008156;28;19979;-43
2022/07/20 07:32:55;;;;;;;;;;;;;;;;;;5007781;28;19913;-44
2022/07/20 07:35:21;;;;;;;;;;;;;;;;;;5007684;28;19913;-45
2022/07/20 07:37:46;;;;;;;;;;;;;;;;;;5007555;28;19917;-44
2022/07/20 07:40:12;;;;;;;;;;;;;;;;;;5007186;28;19913;-45
2022/07/20 07:42:38;;;;;;;;;;;;;;;;;;5007454;28;20341;-42
2022/07/20 07:45:06;;;;;;;;;;;;;;;;;;5007002;28;20008;-43
2022/07/20 07:47:32;;;;;;;;;;;;;;;;;;5005856;28;19967;-42
2022/07/20 07:49:58;;;;;;;;;;;;;;;;;;4994377;28;19969;-45
2022/07/20 07:52:25;;;;;;;;;;;;;;;;;;4987558;28;19918;-44
2022/07/20 07:54:51;;;;;;;;;;;;;;;;;;4987617;28;19918;-44
2022/07/20 07:57:17;;;;;;;;;;;;;;;;;;4987369;28;20453;-44
2022/07/20 07:59:42;;;;;;;;;;;;;;;;;;4987427;28;19910;-43
2022/07/20 08:02:08;;;;;;;;;;;;;;;;;;4987480;28;20372;-42
2022/07/20 08:04:34;;;;;;;;;;;;;;;;;;4987534;28;19914;-44
2022/07/20 08:07:00;;;;;;;;;;;;;;;;;;4988139;28;20019;-43
2022/07/20 08:09:26;;;;;;;;;;;;;;;;;;4995372;28;20513;-42
2022/07/20 08:11:52;;;;;;;;;;;;;;;;;;5007107;28;19918;-44
2022/07/20 08:14:18;;;;;;;;;;;;;;;;;;5006359;28;19987;-44
2022/07/20 08:16:44;;;;;;;;;;;;;;;;;;5006777;28;19921;-43
2022/07/20 08:19:10;;;;;;;;;;;;;;;;;;5006816;28;19909;-43
2022/07/20 08:21:36;;;;;;;;;;;;;;;;;;5006968;28;19960;-44
2022/07/20 08:24:01;;;;;;;;;;;;;;;;;;5006351;28;20410;-44
2022/07/20 08:26:27;;;;;;;;;;;;;;;;;;4988965;28;20415;-43
2022/07/20 08:28:53;;;;;;;;;;;;;;;;;;4996423;28;19918;-44
2022/07/20 08:31:19;;;;;;;;;;;;;;;;;;5007281;28;19909;-43
2022/07/20 08:33:45;;;;;;;;;;;;;;;;;;4995211;28;19920;-43
2022/07/20 08:36:11;;;;;;;;;;;;;;;;;;4988228;28;19960;-42
2022/07/20 08:38:37;;;;;;;;;;;;;;;;;;4988166;28;19910;-42
2022/07/20 08:41:03;;;;;;;;;;;;;;;;;;4993234;28;19909;-44
2022/07/20 08:43:29;;;;;;;;;;;;;;;;;;5007595;28;19917;-44
2022/07/20 08:45:55;;;;;;;;;;;;;;;;;;5006156;28;19917;-43
2022/07/20 08:48:21;;;;;;;;;;;;;;;;;;5006707;28;19914;-44
2022/07/20 08:50:47;;;;;;;;;;;;;;;;;;5005895;28;20008;-45
2022/07/20 08:53:13;;;;;;;;;;;;;;;;;;5006789;28;19952;-43
2022/07/20 08:55:39;;;;;;;;;;;;;;;;;;5004956;28;20398;-44
2022/07/20 08:58:05;;;;;;;;;;;;;;;;;;4987754;28;20007;-45
2022/07/20 09:00:31;;;;;;;;;;;;;;;;;;5007350;28;19951;-44
2022/07/20 09:02:57;;;;;;;;;;;;;;;;;;4993765;28;20279;-42
2022/07/20 09:05:23;;;;;;;;;;;;;;;;;;5025034;28;19924;-43
2022/07/20 09:07:49;;;;;;;;;;;;;;;;;;5009223;28;19913;-46
2022/07/20 09:10:15;;;;;;;;;;;;;;;;;;5003085;28;19968;-46
2022/07/20 09:12:41;;;;;;;;;;;;;;;;;;4991753;28;19913;-44
2022/07/20 09:15:07;;;;;;;;;;;;;;;;;;4991691;28;19979;-43
2022/07/20 09:17:33;;;;;;;;;;;;;;;;;;5006594;28;19914;-46
2022/07/20 09:19:59;;;;;;;;;;;;;;;;;;5012140;28;19949;-42
2022/07/20 09:22:25;;;;;;;;;;;;;;;;;;5010811;28;19956;-43
2022/07/20 09:24:51;;;;;;;;;;;;;;;;;;4992919;28;19926;-43
2022/07/20 09:27:16;;;;;;;;;;;;;;;;;;4997871;28;19924;-42
2022/07/20 09:29:42;;;;;;;;;;;;;;;;;;4991383;28;19940;-42
2022/07/20 09:32:08;;;;;;;;;;;;;;;;;;4991280;28;19993;-43
2022/07/20 09:34:37;;;;;;;;;;;;;;;;;;4996769;28;20028;-43
2022/07/20 09:37:03;;;;;;;;;;;;;;;;;;5009795;28;19936;-42
2022/07/20 09:39:30;;;;;;;;;;;;;;;;;;5010424;28;19910;-45
2022/07/20 09:41:56;;;;;;;;;;;;;;;;;;4997257;28;20426;-43
2022/07/20 09:44:22;;;;;;;;;;;;;;;;;;4990468;28;20028;-44
2022/07/20 09:46:48;;;;;;;;;;;;;;;;;;4990190;28;19991;-43
2022/07/20 09:49:14;;;;;;;;;;;;;;;;;;4988650;28;19913;-43
2022/07/20 09:51:40;;;;;;;;;;;;;;;;;;4989901;28;19964;-43
2022/07/20 09:54:06;;;;;;;;;;;;;;;;;;4991183;28;20414;-43
2022/07/20 09:56:32;;;;;;;;;;;;;;;;;;5000322;28;19918;-42
2022/07/20 09:58:58;;;;;;;;;;;;;;;;;;5007342;28;20468;-44
2022/07/20 10:01:24;;;;;;;;;;;;;;;;;;5003925;28;19968;-45
2022/07/20 10:03:49;;;;;;;;;;;;;;;;;;4990898;28;19953;-42
2022/07/20 10:06:15;;;;;;;;;;;;;;;;;;5006036;28;19933;-42
2022/07/20 10:08:41;;;;;;;;;;;;;;;;;;5010371;28;19958;-46
2022/07/20 10:11:07;;;;;;;;;;;;;;;;;;5008526;28;20397;-42
2022/07/20 10:13:33;;;;;;;;;;;;;;;;;;5010100;28;20008;-46
2022/07/20 10:15:59;;;;;;;;;;;;;;;;;;5010959;28;19909;-43
2022/07/20 10:18:25;;;;;;;;;;;;;;;;;;5010061;28;19909;-43
2022/07/20 10:20:51;;;;;;;;;;;;;;;;;;4994254;28;19936;-45
2022/07/20 10:23:17;;;;;;;;;;;;;;;;;;5003944;28;19924;-47
2022/07/20 10:25:43;;;;;;;;;;;;;;;;;;4999904;28;19960;-43
2022/07/20 10:28:09;;;;;;;;;;;;;;;;;;4997364;28;19930;-43
2022/07/20 10:30:35;;;;;;;;;;;;;;;;;;5009483;28;19968;-44
2022/07/20 10:33:01;;;;;;;;;;;;;;;;;;4991773;28;19913;-43
2022/07/20 10:35:27;;;;;;;;;;;;;;;;;;4990937;28;19918;-43
2022/07/20 10:37:53;;;;;;;;;;;;;;;;;;4990057;28;19945;-43
2022/07/20 10:40:19;;;;;;;;;;;;;;;;;;4989974;28;19921;-43
2022/07/20 10:42:48;;;;;;;;;;;;;;;;;;4989911;28;20267;-45
2022/07/20 10:45:14;;;;;;;;;;;;;;;;;;4988506;28;19972;-43
2022/07/20 10:47:41;;;;;;;;;;;;;;;;;;4990004;28;19913;-44
2022/07/20 10:50:07;;;;;;;;;;;;;;;;;;4989714;28;19914;-43
2022/07/20 10:52:33;;;;;;;;;;;;;;;;;;4990171;28;19914;-44
2022/07/20 10:54:59;;;;;;;;;;;;;;;;;;4996153;28;19955;-44
2022/07/20 10:57:25;;;;;;;;;;;;;;;;;;5001037;28;19952;-45
2022/07/20 10:59:51;;;;;;;;;;;;;;;;;;4995198;28;19910;-47
2022/07/20 11:02:17;;;;;;;;;;;;;;;;;;5007642;28;19963;-43
2022/07/20 11:04:43;;;;;;;;;;;;;;;;;;4996488;28;20012;-44
2022/07/20 11:07:10;;;;;;;;;;;;;;;;;;4995269;28;19921;-46
2022/07/20 11:09:36;;;;;;;;;;;;;;;;;;4993183;28;20000;-45
2022/07/20 11:12:02;;;;;;;;;;;;;;;;;;4999698;28;20020;-44
2022/07/20 11:14:28;;;;;;;;;;;;;;;;;;4993660;28;19951;-45
2022/07/20 11:16:55;;;;;;;;;;;;;;;;;;4999433;28;19913;-45
2022/07/20 11:19:21;;;;;;;;;;;;;;;;;;4992709;28;19924;-44
2022/07/20 11:21:48;;;;;;;;;;;;;;;;;;4990476;28;19929;-43
2022/07/20 11:24:15;;;;;;;;;;;;;;;;;;4994214;28;19967;-45
2022/07/20 11:26:42;;;;;;;;;;;;;;;;;;4999019;28;19946;-45
2022/07/20 11:29:10;;;;;;;;;;;;;;;;;;4987262;28;19926;-45
2022/07/20 11:31:35;;;;;;;;;;;;;;;;;;4991706;28;19914;-45
2022/07/20 11:34:01;;;;;;;;;;;;;;;;;;4992378;28;20385;-44
2022/07/20 11:36:27;;;;;;;;;;;;;;;;;;5000216;28;19922;-45
2022/07/20 11:38:53;;;;;;;;;;;;;;;;;;4989793;28;19913;-44
2022/07/20 11:41:19;;;;;;;;;;;;;;;;;;4997767;28;19917;-43
2022/07/20 11:43:45;;;;;;;;;;;;;;;;;;4998625;28;19921;-43
2022/07/20 11:46:11;;;;;;;;;;;;;;;;;;4991753;28;19914;-44
2022/07/20 11:48:37;;;;;;;;;;;;;;;;;;4993173;28;19917;-45
2022/07/20 11:51:03;;;;;;;;;;;;;;;;;;4996671;28;20410;-45
2022/07/20 11:53:29;;;;;;;;;;;;;;;;;;4998871;28;20028;-45
2022/07/20 11:55:55;;;;;;;;;;;;;;;;;;4999061;28;19917;-44
2022/07/20 11:58:20;;;;;;;;;;;;;;;;;;4993193;28;19913;-41
2022/07/20 12:00:47;;;;;;;;;;;;;;;;;;4997505;28;20363;-41
2022/07/20 12:03:14;;;;;;;;;;;;;;;;;;4989355;28;20020;-42
2022/07/20 12:05:40;;;;;;;;;;;;;;;;;;4997503;28;19968;-42
2022/07/20 12:08:09;;;;;;;;;;;;;;;;;;4999234;28;19960;-42
2022/07/20 12:10:35;;;;;;;;;;;;;;;;;;4993354;28;20012;-43
2022/07/20 12:13:01;;;;;;;;;;;;;;;;;;4998842;28;20346;-41
2022/07/20 12:15:27;;;;;;;;;;;;;;;;;;4993381;28;19972;-42
2022/07/20 12:17:53;;;;;;;;;;;;;;;;;;5003631;28;19963;-43
2022/07/20 12:20:20;;;;;;;;;;;;;;;;;;4986912;28;20020;-41
2022/07/20 12:22:46;;;;;;;;;;;;;;;;;;4999901;28;19917;-42
2022/07/20 12:25:12;;;;;;;;;;;;;;;;;;5002924;28;19923;-41
2022/07/20 12:27:38;;;;;;;;;;;;;;;;;;5006563;28;20385;-41
2022/07/20 12:30:04;;;;;;;;;;;;;;;;;;5001955;28;19914;-42
2022/07/20 12:32:30;;;;;;;;;;;;;;;;;;4987449;28;19924;-43
2022/07/20 12:34:56;;;;;;;;;;;;;;;;;;4987035;28;19906;-42
2022/07/20 12:37:21;;;;;;;;;;;;;;;;;;4986327;28;20210;-43
2022/07/20 12:39:48;;;;;;;;;;;;;;;;;;4985983;28;20517;-44
2022/07/20 12:42:19;;;;;;;;;;;;;;;;;;4985558;28;19973;-42
2022/07/20 12:44:46;;;;;;;;;;;;;;;;;;4985430;28;19917;-43
2022/07/20 12:47:12;;;;;;;;;;;;;;;;;;4985668;28;19982;-41
2022/07/20 12:49:38;;;;;;;;;;;;;;;;;;4985766;28;19913;-43
2022/07/20 12:52:04;;;;;;;;;;;;;;;;;;4985685;28;19916;-44
2022/07/20 12:54:30;;;;;;;;;;;;;;;;;;4985924;28;19910;-41
2022/07/20 12:56:57;;;;;;;;;;;;;;;;;;5002438;28;19909;-41
2022/07/20 12:59:23;;;;;;;;;;;;;;;;;;5003602;28;19929;-44
2022/07/20 13:01:49;;;;;;;;;;;;;;;;;;5005321;28;20369;-45
2022/07/20 13:04:15;;;;;;;;;;;;;;;;;;5004953;28;19917;-42
2022/07/20 13:06:43;;;;;;;;;;;;;;;;;;5005054;28;20339;-42
2022/07/20 13:09:09;;;;;;;;;;;;;;;;;;5005559;28;19914;-43
2022/07/20 13:11:38;;;;;;;;;;;;;;;;;;5004931;28;19913;-44
2022/07/20 13:14:04;;;;;;;;;;;;;;;;;;5004941;28;20007;-42
2022/07/20 13:16:31;;;;;;;;;;;;;;;;;;5005104;28;19910;-42
2022/07/20 13:18:57;;;;;;;;;;;;;;;;;;5006227;28;19921;-43
2022/07/20 13:21:23;;;;;;;;;;;;;;;;;;5004939;28;19919;-42
2022/07/20 13:23:49;;;;;;;;;;;;;;;;;;5004892;28;19914;-45
2022/07/20 13:26:16;;;;;;;;;;;;;;;;;;5004642;28;19914;-42
2022/07/20 13:28:42;;;;;;;;;;;;;;;;;;5004679;28;19917;-41
2022/07/20 13:31:08;;;;;;;;;;;;;;;;;;5004835;28;19948;-43
2022/07/20 13:33:34;;;;;;;;;;;;;;;;;;5005285;28;20429;-42
2022/07/20 13:36:01;;;;;;;;;;;;;;;;;;5004902;28;19964;-43
2022/07/20 13:38:26;;;;;;;;;;;;;;;;;;5003793;28;20409;-42
2022/07/20 13:40:53;;;;;;;;;;;;;;;;;;5004510;28;19978;-43
2022/07/20 13:43:18;;;;;;;;;;;;;;;;;;5004751;28;20664;-42
2022/07/20 13:45:45;;;;;;;;;;;;;;;;;;5005265;28;20314;-43
2022/07/20 13:48:11;;;;;;;;;;;;;;;;;;5008225;28;19917;-43
2022/07/20 13:50:38;;;;;;;;;;;;;;;;;;5008495;28;19932;-42
2022/07/20 13:53:03;;;;;;;;;;;;;;;;;;5008512;28;19914;-43
2022/07/20 13:55:29;;;;;;;;;;;;;;;;;;5008071;28;19909;-43
2022/07/20 13:57:55;;;;;;;;;;;;;;;;;;5008769;28;20306;-43
2022/07/20 14:00:21;;;;;;;;;;;;;;;;;;5008183;28;20015;-42
2022/07/20 14:02:47;;;;;;;;;;;;;;;;;;5008112;28;20000;-42
2022/07/20 14:05:13;;;;;;;;;;;;;;;;;;5007636;28;19917;-44
2022/07/20 14:07:39;;;;;;;;;;;;;;;;;;5008096;28;19921;-42
2022/07/20 14:10:05;;;;;;;;;;;;;;;;;;5007568;28;20389;-45
2022/07/20 14:12:30;;;;;;;;;;;;;;;;;;5008080;28;19916;-43
2022/07/20 14:14:56;;;;;;;;;;;;;;;;;;5008695;28;19913;-43
2022/07/20 14:17:22;;;;;;;;;;;;;;;;;;5005248;28;20036;-42
2022/07/20 14:19:49;;;;;;;;;;;;;;;;;;5008578;28;19917;-43
2022/07/20 14:22:15;;;;;;;;;;;;;;;;;;5006180;28;19914;-43
2022/07/20 14:24:41;;;;;;;;;;;;;;;;;;5008040;28;19913;-42
2022/07/20 14:27:07;;;;;;;;;;;;;;;;;;5007547;28;19945;-41
2022/07/20 14:29:33;;;;;;;;;;;;;;;;;;5007599;28;20279;-42
2022/07/20 14:31:59;;;;;;;;;;;;;;;;;;5007628;28;20309;-43
2022/07/20 14:34:24;;;;;;;;;;;;;;;;;;5007170;28;20005;-43
2022/07/20 14:36:50;;;;;;;;;;;;;;;;;;5007777;28;20283;-42
2022/07/20 14:39:16;;;;;;;;;;;;;;;;;;5007110;28;19963;-43
2022/07/20 14:41:42;;;;;;;;;;;;;;;;;;5007416;28;20417;-40
2022/07/20 14:44:09;;;;;;;;;;;;;;;;;;5007980;28;19928;-43
2022/07/20 14:46:35;;;;;;;;;;;;;;;;;;5007450;28;19914;-41
2022/07/20 14:49:01;;;;;;;;;;;;;;;;;;5007434;28;19910;-43
2022/07/20 14:51:28;;;;;;;;;;;;;;;;;;5007227;28;19916;-42
2022/07/20 14:53:55;;;;;;;;;;;;;;;;;;5007185;28;19914;-45
2022/07/20 14:56:21;;;;;;;;;;;;;;;;;;5006526;28;20004;-42
2022/07/20 14:58:46;;;;;;;;;;;;;;;;;;5006195;28;20043;-45
2022/07/20 15:01:12;;;;;;;;;;;;;;;;;;5006696;28;19914;-41
2022/07/20 15:03:38;;;;;;;;;;;;;;;;;;5007836;28;19924;-45
2022/07/20 15:06:05;;;;;;;;;;;;;;;;;;5006635;28;20409;-41
2022/07/20 15:08:31;;;;;;;;;;;;;;;;;;5007439;28;19960;-44
2022/07/20 15:10:58;;;;;;;;;;;;;;;;;;5006913;28;20406;-41
2022/07/20 15:13:24;;;;;;;;;;;;;;;;;;5006500;28;19913;-41
2022/07/20 15:15:53;;;;;;;;;;;;;;;;;;5006939;28;19914;-43
2022/07/20 15:18:19;;;;;;;;;;;;;;;;;;5007028;28;19921;-41
2022/07/20 15:20:45;;;;;;;;;;;;;;;;;;5006733;28;20345;-43
2022/07/20 15:23:12;;;;;;;;;;;;;;;;;;5006962;28;19916;-42
2022/07/20 15:25:38;;;;;;;;;;;;;;;;;;5007260;28;19989;-43
2022/07/20 15:28:04;;;;;;;;;;;;;;;;;;5006275;28;20000;-42
2022/07/20 15:30:30;;;;;;;;;;;;;;;;;;5006454;28;19909;-41
2022/07/20 15:32:56;;;;;;;;;;;;;;;;;;5006718;28;19913;-42
2022/07/20 15:35:22;;;;;;;;;;;;;;;;;;5006292;28;19925;-41
2022/07/20 15:37:48;;;;;;;;;;;;;;;;;;5006434;28;20018;-46
2022/07/20 15:40:13;;;;;;;;;;;;;;;;;;5006302;28;19914;-43
2022/07/20 15:42:40;;;;;;;;;;;;;;;;;;5005436;28;19914;-42
2022/07/20 15:45:06;;;;;;;;;;;;;;;;;;5005910;28;19920;-43
2022/07/20 15:47:33;;;;;;;;;;;;;;;;;;5006308;28;19913;-43
2022/07/20 15:49:59;;;;;;;;;;;;;;;;;;5006397;28;20451;-43
2022/07/20 15:52:25;;;;;;;;;;;;;;;;;;5005782;28;19909;-42
2022/07/20 15:54:52;;;;;;;;;;;;;;;;;;5005907;28;20493;-42
2022/07/20 15:57:21;;;;;;;;;;;;;;;;;;5005877;28;20317;-41
2022/07/20 15:59:47;;;;;;;;;;;;;;;;;;5005996;28;19909;-41
2022/07/20 16:02:14;;;;;;;;;;;;;;;;;;5005801;28;19963;-43
2022/07/20 16:04:41;;;;;;;;;;;;;;;;;;5006402;28;19956;-41
2022/07/20 16:07:07;;;;;;;;;;;;;;;;;;5006062;28;20386;-41
2022/07/20 16:09:33;;;;;;;;;;;;;;;;;;5005582;28;19964;-42
2022/07/20 16:11:59;;;;;;;;;;;;;;;;;;5006059;28;19917;-42
2022/07/20 16:14:26;;;;;;;;;;;;;;;;;;5004528;28;19909;-43
2022/07/20 16:16:52;;;;;;;;;;;;;;;;;;4987166;28;19945;-42
2022/07/20 16:19:18;;;;;;;;;;;;;;;;;;4985962;28;19913;-42
2022/07/20 16:21:44;;;;;;;;;;;;;;;;;;4985869;28;20394;-42
2022/07/20 16:24:10;;;;;;;;;;;;;;;;;;4985692;28;20346;-42
2022/07/20 16:26:36;;;;;;;;;;;;;;;;;;4985993;28;19914;-44
2022/07/20 16:29:03;;;;;;;;;;;;;;;;;;4986248;28;19926;-42
2022/07/20 16:31:29;;;;;;;;;;;;;;;;;;4986116;28;20383;-46
2022/07/20 16:33:56;;;;;;;;;;;;;;;;;;4986673;28;19956;-42
2022/07/20 16:36:22;;;;;;;;;;;;;;;;;;4986559;28;19972;-42
2022/07/20 16:38:48;;;;;;;;;;;;;;;;;;4985830;28;20432;-41